Weather at Arngerðareyri Airport

Public forecast

Using degrees Celsius for public forecast. Weather courtesy of forecast.io.

Closest aviation weather report (METAR) to Arngerðareyri Airport

Report is more than 2 hours old.

Closest report is Ísafjörður Airport, 21.0 nm (38.9 km) WNW. Retrieved 2021/06/19 16:00 UTC (5 hours ago):

BIIS 191600Z 04006KT 9999 -SHRA SCT020 OVC040 05/01 Q1015

Closest aviation forecast (TAF) to Arngerðareyri Airport

Closest forecast is Akureyri Airport, 106.7 nm (197.5 km) E. Retrieved 2021/06/19 21:48 UTC (0 seconds ago):

TAF BIAR 191943Z 1921/2021 35005KT 9999 SCT035 TX11/2018Z TN03/2003Z PROB40 TEMPO 2000/2006 2000 BR OVC005